Time;durP1;ratioP1;P1;durP2;ratioP2;P2;SDS_P1;SDS_P2;PMS_P1;PMS_P2;Temp;Humidity;BMP_temperature;BMP_pressure;BME280_temperature;BME280_humidity;BME280_pressure;Samples;Min_cycle;Max_cycle;Signal;HPM_P1;HPM_P2
2023/01/14 00:01:00;;;;;;;;;;;;;;;5.87;77.22;98718.44;7390851;19;20353;-86
2023/01/14 00:03:28;;;;;;;;;;;;;;;5.84;76.80;98718.63;7386625;19;19926;-88
2023/01/14 00:06:50;;;;;;;;;;;;;;;5.78;76.71;98726.16;7381949;19;19919;-87
2023/01/14 00:09:10;;;;;;;;;;;;;;;5.71;76.77;98720.53;7382072;19;19922;-88
2023/01/14 00:11:46;;;;;;;;;;;;;;;5.66;76.88;98718.28;7389605;19;19922;-88
2023/01/14 00:14:15;;;;;;;;;;;;;;;5.61;76.99;98725.66;7384282;19;19925;-88
2023/01/14 00:16:43;;;;;;;;;;;;;;;5.53;76.87;98721.91;7382812;19;19915;-88
2023/01/14 00:19:09;;;;;;;;;;;;;;;5.48;76.78;98727.53;7387384;19;19918;-88
2023/01/14 00:21:36;;;;;;;;;;;;;;;5.35;77.62;98724.16;7390918;19;19919;-87
2023/01/14 00:24:03;;;;;;;;;;;;;;;5.36;78.58;98725.81;7386094;19;19933;-86
2023/01/14 00:26:30;;;;;;;;;;;;;;;5.41;78.76;98728.94;7387999;19;19919;-84
2023/01/14 00:28:57;;;;;;;;;;;;;;;5.56;78.56;98727.78;7386386;19;19946;-84
2023/01/14 00:31:24;;;;;;;;;;;;;;;5.51;78.99;98714.19;7387349;19;19934;-85
2023/01/14 00:33:51;;;;;;;;;;;;;;;5.65;78.01;98721.00;7386443;19;19915;-84
2023/01/14 00:36:19;;;;;;;;;;;;;;;5.72;77.27;98716.97;7395939;19;20469;-85
2023/01/14 00:38:45;;;;;;;;;;;;;;;5.63;77.06;98713.22;7395433;19;19918;-85
2023/01/14 00:41:13;;;;;;;;;;;;;;;5.51;76.67;98711.56;7395689;19;19946;-86
2023/01/14 00:43:41;;;;;;;;;;;;;;;5.43;76.55;98706.06;7395530;19;19914;-85
2023/01/14 00:46:13;;;;;;;;;;;;;;;5.32;76.88;98706.00;7395645;19;19926;-87
2023/01/14 00:48:40;;;;;;;;;;;;;;;5.04;77.28;98705.44;7397188;19;19943;-85
2023/01/14 00:51:07;;;;;;;;;;;;;;;5.12;77.59;98710.13;7396057;19;20605;-85
2023/01/14 00:53:33;;;;;;;;;;;;;;;5.03;77.44;98703.78;7396631;19;19922;-87
2023/01/14 00:56:00;;;;;;;;;;;;;;;4.99;77.69;98716.25;7392980;19;20245;-85
2023/01/14 00:58:27;;;;;;;;;;;;;;;4.94;77.86;98723.63;7395145;19;19918;-85
2023/01/14 01:00:55;;;;;;;;;;;;;;;4.97;77.82;98715.50;7394670;19;19914;-85
2023/01/14 01:03:22;;;;;;;;;;;;;;;4.94;77.79;98715.75;7393094;19;19926;-87
2023/01/14 01:05:48;;;;;;;;;;;;;;;4.98;77.46;98726.88;7385669;19;19930;-87
2023/01/14 01:08:16;;;;;;;;;;;;;;;4.97;77.65;98727.78;7386595;19;20404;-88
2023/01/14 01:10:43;;;;;;;;;;;;;;;4.98;77.70;98732.09;7389925;19;19990;-88
2023/01/14 01:13:10;;;;;;;;;;;;;;;4.96;77.78;98739.25;7387188;19;19919;-88
2023/01/14 01:15:37;;;;;;;;;;;;;;;5.05;77.92;98742.03;7387210;19;19971;-87
2023/01/14 01:18:04;;;;;;;;;;;;;;;5.10;78.16;98746.09;7388285;19;20498;-88
2023/01/14 01:20:31;;;;;;;;;;;;;;;5.14;78.22;98748.41;7390242;19;19918;-87
2023/01/14 01:22:58;;;;;;;;;;;;;;;5.23;78.19;98749.50;7391128;19;19923;-87
2023/01/14 01:25:25;;;;;;;;;;;;;;;5.27;77.72;98753.59;7389001;19;19918;-88
2023/01/14 01:27:53;;;;;;;;;;;;;;;5.28;77.73;98745.56;7390922;19;19922;-87
2023/01/14 01:30:20;;;;;;;;;;;;;;;5.10;78.69;98746.09;7391910;19;19935;-85
2023/01/14 01:32:47;;;;;;;;;;;;;;;5.07;78.88;98741.91;7390280;19;19914;-86
2023/01/14 01:35:13;;;;;;;;;;;;;;;5.26;78.45;98742.22;7388662;19;19951;-86
2023/01/14 01:37:40;;;;;;;;;;;;;;;5.39;78.34;98747.41;7388934;19;20295;-86
2023/01/14 01:40:08;;;;;;;;;;;;;;;5.23;78.41;98758.19;7390073;19;20438;-85
2023/01/14 01:42:35;;;;;;;;;;;;;;;5.39;78.66;98752.66;7392858;19;20269;-85
2023/01/14 01:45:25;;;;;;;;;;;;;;;5.31;78.25;98759.44;7390954;19;20012;-87
2023/01/14 01:47:53;;;;;;;;;;;;;;;5.39;78.16;98767.56;7391654;19;19918;-87
2023/01/14 01:50:20;;;;;;;;;;;;;;;5.34;77.57;98761.81;7388360;19;19937;-86
2023/01/14 01:52:47;;;;;;;;;;;;;;;5.34;78.07;98769.69;7389527;19;19939;-87
2023/01/14 01:55:14;;;;;;;;;;;;;;;5.33;nan;98758.38;7386852;19;19919;-87
2023/01/14 01:57:41;;;;;;;;;;;;;;;5.44;77.84;98749.69;7385870;19;20025;-87
2023/01/14 02:00:08;;;;;;;;;;;;;;;5.43;77.53;98755.91;7385340;19;19928;-87
2023/01/14 02:02:43;;;;;;;;;;;;;;;5.29;77.88;98751.66;7380973;19;20248;-87
2023/01/14 02:05:09;;;;;;;;;;;;;;;5.26;78.19;98751.88;7382122;19;20357;-88
2023/01/14 02:07:36;;;;;;;;;;;;;;;5.20;78.08;98753.19;7384195;19;20340;-87
2023/01/14 02:10:04;;;;;;;;;;;;;;;5.02;78.49;98755.34;7383179;19;19929;-89
2023/01/14 02:12:47;;;;;;;;;;;;;;;5.16;78.29;98746.50;7382034;19;19914;-87
2023/01/14 02:15:19;;;;;;;;;;;;;;;5.02;78.18;98749.28;7382938;19;19937;-88
2023/01/14 02:18:01;;;;;;;;;;;;;;;5.05;78.02;98749.03;7386681;19;19924;-87
2023/01/14 02:20:34;;;;;;;;;;;;;;;5.15;77.91;98755.31;7385583;19;19918;-87
2023/01/14 02:23:00;;;;;;;;;;;;;;;5.14;77.76;98747.56;7383840;19;19918;-87
2023/01/14 02:25:30;;;;;;;;;;;;;;;5.11;78.84;98740.75;7388875;19;20368;-87
2023/01/14 02:28:04;;;;;;;;;;;;;;;5.05;78.76;98742.03;7386736;19;19998;-87
2023/01/14 02:30:37;;;;;;;;;;;;;;;5.19;nan;98750.69;7388635;19;20065;-87
2023/01/14 02:33:05;;;;;;;;;;;;;;;5.22;77.47;98742.59;7386717;19;19915;-87
2023/01/14 02:35:36;;;;;;;;;;;;;;;5.18;77.62;98744.56;7388040;19;19949;-86
2023/01/14 02:38:25;;;;;;;;;;;;;;;5.17;78.18;98732.44;7383899;19;19939;-89
2023/01/14 02:40:58;;;;;;;;;;;;;;;5.07;78.45;98734.03;7388418;19;19922;-86
2023/01/14 02:46:31;;;;;;;;;;;;;;;5.01;76.79;98730.09;7384661;19;19915;-88
2023/01/14 02:49:03;;;;;;;;;;;;;;;4.91;76.71;98731.69;7390490;19;19974;-88
2023/01/14 02:51:30;;;;;;;;;;;;;;;4.77;76.61;98740.56;7392103;19;19966;-88
2023/01/14 02:53:57;;;;;;;;;;;;;;;4.55;77.38;98748.28;7389448;19;19948;-87
2023/01/14 02:56:26;;;;;;;;;;;;;;;4.48;77.63;98736.56;7387009;19;19918;-87
2023/01/14 02:59:04;;;;;;;;;;;;;;;4.46;78.47;98735.84;7386562;19;20294;-87
2023/01/14 03:01:45;;;;;;;;;;;;;;;4.52;78.17;98730.97;7386394;19;19914;-88
2023/01/14 03:04:15;;;;;;;;;;;;;;;4.36;78.86;98731.22;7388364;19;19935;-88
2023/01/14 03:06:46;;;;;;;;;;;;;;;4.57;79.14;98728.03;7387176;19;19911;-89
2023/01/14 03:09:28;;;;;;;;;;;;;;;4.67;79.51;98733.47;7389845;19;20037;-88
2023/01/14 03:11:56;;;;;;;;;;;;;;;4.76;79.26;98727.56;7389017;19;19918;-88
2023/01/14 03:14:28;;;;;;;;;;;;;;;4.73;79.52;98726.00;7387865;19;20337;-87
2023/01/14 03:16:56;;;;;;;;;;;;;;;4.94;79.27;98715.75;7387780;19;19931;-86
2023/01/14 03:19:28;;;;;;;;;;;;;;;5.13;78.64;98709.97;7384810;19;19930;-87
2023/01/14 03:21:54;;;;;;;;;;;;;;;5.19;77.66;98708.72;7388252;19;19918;-87
2023/01/14 03:24:31;;;;;;;;;;;;;;;5.19;77.93;98724.47;7390900;19;19978;-87
2023/01/14 03:27:01;;;;;;;;;;;;;;;5.14;78.23;98724.78;7387557;19;20649;-87
2023/01/14 03:29:29;;;;;;;;;;;;;;;5.25;77.83;98724.81;7387368;19;19943;-87
2023/01/14 03:32:01;;;;;;;;;;;;;;;5.11;78.42;98725.03;7387868;19;19915;-87
2023/01/14 03:34:29;;;;;;;;;;;;;;;5.13;78.41;98724.88;7388250;19;20273;-87
2023/01/14 03:36:56;;;;;;;;;;;;;;;5.17;78.13;98721.94;7388900;19;19911;-85
2023/01/14 03:39:23;;;;;;;;;;;;;;;5.04;78.49;98718.53;7385787;19;19925;-85
2023/01/14 03:44:39;;;;;;;;;;;;;;;5.17;77.99;98715.84;7389220;19;20020;-85
2023/01/14 03:47:06;;;;;;;;;;;;;;;5.20;78.11;98705.13;7391198;19;19911;-87
2023/01/14 03:49:32;;;;;;;;;;;;;;;5.23;78.05;98697.88;7398765;19;19919;-88
2023/01/14 03:52:06;;;;;;;;;;;;;;;5.31;77.89;98702.53;7395190;19;19925;-86
2023/01/14 03:54:38;;;;;;;;;;;;;;;5.34;77.84;98704.09;7394847;19;19915;-86
2023/01/14 03:57:18;;;;;;;;;;;;;;;5.45;77.47;98704.97;7391033;19;19982;-87
2023/01/14 03:59:57;;;;;;;;;;;;;;;5.48;77.04;98702.13;7390064;19;19914;-86
2023/01/14 04:02:24;;;;;;;;;;;;;;;5.40;77.17;98690.53;7390968;19;21513;-87
2023/01/14 04:04:50;;;;;;;;;;;;;;;5.43;77.12;98679.81;7392053;19;20744;-87
2023/01/14 04:07:17;;;;;;;;;;;;;;;5.19;77.63;98677.25;7394856;19;19914;-87
2023/01/14 04:09:43;;;;;;;;;;;;;;;5.30;77.00;98679.06;7392809;19;19918;-88
2023/01/14 04:12:10;;;;;;;;;;;;;;;5.30;77.34;98672.03;7390233;19;19931;-87
2023/01/14 04:17:22;;;;;;;;;;;;;;;5.23;77.15;98663.75;7386466;19;19927;-87
2023/01/14 04:19:48;;;;;;;;;;;;;;;5.32;76.91;98654.38;7391227;19;19910;-87
2023/01/14 04:22:15;;;;;;;;;;;;;;;5.45;76.45;98656.91;7392558;19;19929;-86
2023/01/14 04:24:41;;;;;;;;;;;;;;;5.40;77.06;98649.41;7393154;19;19918;-87
2023/01/14 04:27:08;;;;;;;;;;;;;;;5.39;75.72;98660.00;7389118;19;19914;-87
2023/01/14 04:29:35;;;;;;;;;;;;;;;5.16;76.96;98653.84;7389638;19;19935;-87
2023/01/14 04:32:01;;;;;;;;;;;;;;;5.31;75.93;98649.25;7391541;19;19922;-87
2023/01/14 04:34:28;;;;;;;;;;;;;;;5.17;76.37;98652.91;7391650;19;19935;-88
2023/01/14 04:36:55;;;;;;;;;;;;;;;4.99;77.12;98650.69;7383231;19;19922;-87
2023/01/14 04:39:21;;;;;;;;;;;;;;;5.13;77.13;98651.44;7388980;19;19929;-86
2023/01/14 04:44:33;;;;;;;;;;;;;;;5.16;77.15;98635.47;7390675;19;20290;-86
2023/01/14 04:46:59;;;;;;;;;;;;;;;5.25;77.06;98634.81;7388116;19;19950;-86
2023/01/14 04:49:26;;;;;;;;;;;;;;;5.31;77.01;98636.97;7384861;19;20289;-87
2023/01/14 04:51:52;;;;;;;;;;;;;;;5.27;77.16;98644.22;7389232;19;19915;-87
2023/01/14 04:54:19;;;;;;;;;;;;;;;5.29;77.41;98651.97;7388818;19;19990;-87
2023/01/14 04:56:46;;;;;;;;;;;;;;;5.38;77.29;98653.91;7385927;19;19925;-86
2023/01/14 04:59:12;;;;;;;;;;;;;;;5.33;77.15;98648.19;7386876;19;19939;-86
2023/01/14 05:01:39;;;;;;;;;;;;;;;5.17;77.36;98651.13;7390049;19;19942;-85
2023/01/14 05:04:05;;;;;;;;;;;;;;;5.17;77.80;98650.28;7388612;19;19946;-86
2023/01/14 05:06:32;;;;;;;;;;;;;;;5.26;77.24;98647.78;7383768;19;19919;-86
2023/01/14 05:08:58;;;;;;;;;;;;;;;5.22;77.13;98646.38;7382367;19;19926;-85
2023/01/14 05:11:25;;;;;;;;;;;;;;;5.44;76.69;98644.75;7387316;19;19931;-86
2023/01/14 05:13:52;;;;;;;;;;;;;;;5.45;76.68;98646.41;7384129;19;19923;-86
2023/01/14 05:16:19;;;;;;;;;;;;;;;5.48;76.58;98649.66;7379972;19;19911;-86
2023/01/14 05:18:45;;;;;;;;;;;;;;;5.47;76.28;98637.47;7387801;19;19943;-88
2023/01/14 05:21:12;;;;;;;;;;;;;;;5.50;76.52;98628.50;7387840;19;19935;-85
2023/01/14 05:23:38;;;;;;;;;;;;;;;5.46;76.45;98641.03;7388577;19;20384;-87
2023/01/14 05:26:05;;;;;;;;;;;;;;;5.50;76.24;98628.50;7386247;19;19919;-86
2023/01/14 05:28:33;;;;;;;;;;;;;;;5.60;76.17;98623.41;7393224;19;20293;-86
2023/01/14 05:30:59;;;;;;;;;;;;;;;5.48;76.17;98623.41;7391181;19;19927;-86
2023/01/14 05:33:26;;;;;;;;;;;;;;;5.46;76.24;98621.84;7386165;19;19922;-87
2023/01/14 05:35:56;;;;;;;;;;;;;;;5.54;75.95;98629.97;7389235;19;19934;-85
2023/01/14 05:38:23;;;;;;;;;;;;;;;5.47;76.23;98628.75;7387989;19;19934;-86
2023/01/14 05:40:49;;;;;;;;;;;;;;;5.47;75.98;98618.25;7386253;19;19937;-86
2023/01/14 05:46:03;;;;;;;;;;;;;;;5.48;75.65;98599.78;7389518;19;19918;-86
2023/01/14 05:48:30;;;;;;;;;;;;;;;5.42;76.16;98599.41;7386874;19;19934;-88
2023/01/14 05:50:57;;;;;;;;;;;;;;;5.30;76.40;98593.31;7388128;19;19933;-86
2023/01/14 05:53:24;;;;;;;;;;;;;;;5.25;76.56;98604.16;7389906;19;20353;-86
2023/01/14 05:55:52;;;;;;;;;;;;;;;5.11;76.46;98595.66;7386561;19;19938;-87
2023/01/14 05:58:18;;;;;;;;;;;;;;;5.08;76.68;98604.59;7380436;19;19922;-84
2023/01/14 06:06:23;;;;;;;;;;;;;;;5.20;75.68;98593.19;7384580;19;19918;-86
2023/01/14 06:08:53;;;;;;;;;;;;;;;5.36;75.40;98586.78;7387555;19;19919;-86
2023/01/14 06:11:20;;;;;;;;;;;;;;;5.30;75.46;98584.63;7389245;19;19931;-88
2023/01/14 06:13:47;;;;;;;;;;;;;;;5.35;75.43;98582.50;7387116;19;20341;-87
2023/01/14 06:16:14;;;;;;;;;;;;;;;5.14;75.57;98593.66;7385562;19;19930;-87
2023/01/14 06:18:43;;;;;;;;;;;;;;;5.16;75.80;98594.38;7388321;19;19925;-87
2023/01/14 06:21:12;;;;;;;;;;;;;;;5.31;75.43;98589.75;7383961;19;19918;-87
2023/01/14 06:23:38;;;;;;;;;;;;;;;5.27;74.60;98589.16;7391154;19;19967;-86
2023/01/14 06:26:12;;;;;;;;;;;;;;;5.27;74.52;98594.41;7391317;19;19929;-87
2023/01/14 06:28:39;;;;;;;;;;;;;;;5.16;75.27;98607.50;7390672;19;19980;-86
2023/01/14 06:31:09;;;;;;;;;;;;;;;5.05;75.82;98599.56;7391202;19;19926;-85
2023/01/14 06:33:36;;;;;;;;;;;;;;;5.09;75.26;98594.97;7390416;19;19935;-86
2023/01/14 06:36:03;;;;;;;;;;;;;;;4.88;76.04;98586.91;7388291;19;19919;-86
2023/01/14 06:38:29;;;;;;;;;;;;;;;4.85;76.00;98585.34;7389871;19;19918;-86
2023/01/14 06:40:59;;;;;;;;;;;;;;;4.89;75.90;98580.72;7385396;19;19925;-86
2023/01/14 06:43:26;;;;;;;;;;;;;;;4.84;75.95;98574.03;7385977;19;19931;-85
2023/01/14 06:45:53;;;;;;;;;;;;;;;4.82;75.55;98575.09;7382327;19;19965;-87
2023/01/14 06:48:20;;;;;;;;;;;;;;;4.81;75.44;98576.03;7381428;19;19925;-86
2023/01/14 06:50:47;;;;;;;;;;;;;;;4.82;75.31;98575.94;7382737;19;19918;-84
2023/01/14 06:53:13;;;;;;;;;;;;;;;4.89;75.48;98575.47;7384095;19;20325;-84
2023/01/14 06:55:40;;;;;;;;;;;;;;;5.19;74.79;98580.19;7388872;19;19925;-86
2023/01/14 06:58:07;;;;;;;;;;;;;;;4.89;75.17;98570.22;7389689;19;19921;-86
2023/01/14 07:00:33;;;;;;;;;;;;;;;4.95;75.01;98561.88;7384067;19;19923;-87
2023/01/14 07:03:03;;;;;;;;;;;;;;;5.27;74.73;98564.72;7383531;19;19922;-87
2023/01/14 07:05:30;;;;;;;;;;;;;;;5.37;74.46;98551.69;7382238;19;19923;-85
2023/01/14 07:07:57;;;;;;;;;;;;;;;5.31;74.40;98553.00;7387373;19;19918;-85
2023/01/14 07:10:23;;;;;;;;;;;;;;;5.56;73.78;98551.13;7387424;19;19915;-86
2023/01/14 07:12:51;;;;;;;;;;;;;;;5.52;74.04;98552.31;7385804;19;20301;-84
2023/01/14 07:15:18;;;;;;;;;;;;;;;5.51;74.18;98540.97;7380497;19;19944;-84
2023/01/14 07:17:45;;;;;;;;;;;;;;;5.42;73.91;98539.06;7384119;19;19974;-85
2023/01/14 07:20:12;;;;;;;;;;;;;;;5.45;73.91;98531.81;7381776;19;19938;-87
2023/01/14 07:22:38;;;;;;;;;;;;;;;5.42;73.92;98541.69;7388118;19;19962;-86
2023/01/14 07:25:06;;;;;;;;;;;;;;;5.38;74.36;98535.03;7383140;19;20571;-85
2023/01/14 07:27:33;;;;;;;;;;;;;;;5.40;74.33;98533.13;7380918;19;20298;-86
2023/01/14 07:30:00;;;;;;;;;;;;;;;5.35;74.48;98524.78;7382740;19;19922;-86
2023/01/14 07:32:27;;;;;;;;;;;;;;;5.42;74.11;98521.53;7391375;19;19923;-85
2023/01/14 07:34:53;;;;;;;;;;;;;;;5.57;74.23;98511.63;7394421;19;20008;-85
2023/01/14 07:37:20;;;;;;;;;;;;;;;5.40;74.45;98518.22;7389583;19;20253;-85
2023/01/14 07:39:46;;;;;;;;;;;;;;;5.60;74.45;98516.63;7390383;19;20412;-86
2023/01/14 07:42:15;;;;;;;;;;;;;;;5.53;74.26;98517.22;7390734;19;19929;-85
2023/01/14 07:44:44;;;;;;;;;;;;;;;5.49;74.59;98506.16;7384413;19;19926;-83
2023/01/14 07:47:11;;;;;;;;;;;;;;;5.56;74.39;98499.47;7381366;19;19943;-83
2023/01/14 07:49:39;;;;;;;;;;;;;;;5.55;74.41;98492.53;7386281;19;19903;-83
2023/01/14 07:52:06;;;;;;;;;;;;;;;5.70;73.92;98487.88;7386258;19;19914;-85
2023/01/14 07:54:33;;;;;;;;;;;;;;;5.77;74.28;98465.44;7383273;19;19961;-86
2023/01/14 07:57:00;;;;;;;;;;;;;;;5.73;74.30;98469.25;7384343;19;19914;-84
2023/01/14 07:59:26;;;;;;;;;;;;;;;5.74;74.21;98470.94;7389614;19;19923;-85
2023/01/14 08:01:56;;;;;;;;;;;;;;;5.87;73.91;98461.13;7386089;19;20388;-84
2023/01/14 08:04:23;;;;;;;;;;;;;;;5.82;74.09;98465.03;7378311;19;20008;-83
2023/01/14 08:06:50;;;;;;;;;;;;;;;5.78;74.04;98453.97;7380611;19;19923;-84
2023/01/14 08:09:17;;;;;;;;;;;;;;;5.94;74.03;98446.53;7382804;19;19918;-84
2023/01/14 08:11:44;;;;;;;;;;;;;;;5.85;73.99;98455.16;7385253;19;19914;-84
2023/01/14 08:14:10;;;;;;;;;;;;;;;5.94;73.85;98453.59;7382831;19;19922;-84
2023/01/14 08:16:37;;;;;;;;;;;;;;;6.08;73.55;98455.94;7379939;19;19933;-84
2023/01/14 08:19:04;;;;;;;;;;;;;;;6.28;73.31;98453.47;7386478;19;20278;-85
2023/01/14 08:21:30;;;;;;;;;;;;;;;6.22;73.57;98446.09;7383559;19;19922;-85
2023/01/14 08:23:57;;;;;;;;;;;;;;;6.35;73.59;98446.75;7383500;19;19930;-85
2023/01/14 08:26:23;;;;;;;;;;;;;;;6.54;72.96;98449.50;7379298;19;19926;-85
2023/01/14 08:28:50;;;;;;;;;;;;;;;6.36;73.47;98448.41;7382970;19;19929;-84
2023/01/14 08:31:16;;;;;;;;;;;;;;;6.30;73.36;98448.91;7387288;19;19922;-84
2023/01/14 08:33:44;;;;;;;;;;;;;;;6.35;73.39;98441.50;7387552;19;19918;-83
2023/01/14 08:36:11;;;;;;;;;;;;;;;6.42;73.21;98437.38;7381681;19;19974;-83
2023/01/14 08:38:39;;;;;;;;;;;;;;;6.51;73.67;98444.50;7382575;19;19994;-85
2023/01/14 08:41:09;;;;;;;;;;;;;;;6.44;73.46;98443.34;7381812;19;19918;-83
2023/01/14 08:43:36;;;;;;;;;;;;;;;6.66;73.22;98438.91;7384845;19;19926;-84
2023/01/14 08:46:03;;;;;;;;;;;;;;;6.65;73.08;98445.13;7390222;19;19942;-83
2023/01/14 08:48:30;;;;;;;;;;;;;;;6.86;73.11;98443.31;7401399;19;19923;-82
2023/01/14 08:51:01;;;;;;;;;;;;;;;6.71;72.97;98437.56;7396379;19;20388;-82
2023/01/14 08:53:30;;;;;;;;;;;;;;;6.67;73.18;98433.53;7395726;19;19938;-81
2023/01/14 08:56:00;;;;;;;;;;;;;;;6.66;72.94;98423.13;7385846;19;19942;-85
2023/01/14 08:58:26;;;;;;;;;;;;;;;6.71;72.84;98416.53;7382575;19;19978;-80
2023/01/14 09:00:56;;;;;;;;;;;;;;;6.74;73.00;98411.03;7387275;19;19919;-82
2023/01/14 09:03:25;;;;;;;;;;;;;;;7.03;72.29;98411.16;7392499;19;19932;-83
2023/01/14 09:05:59;;;;;;;;;;;;;;;6.85;72.55;98399.59;7391487;19;19914;-85
2023/01/14 09:19:27;;;;;;;;;;;;;;;7.06;72.95;98404.81;7389556;19;19970;-82
2023/01/14 09:21:54;;;;;;;;;;;;;;;7.04;73.28;98404.91;7390976;19;19923;-83
2023/01/14 09:24:20;;;;;;;;;;;;;;;7.02;73.06;98391.06;7391132;19;19919;-84
2023/01/14 09:26:47;;;;;;;;;;;;;;;6.97;72.90;98397.69;7389914;19;19919;-81
2023/01/14 09:29:14;;;;;;;;;;;;;;;7.13;72.73;98378.78;7385645;19;20664;-85
2023/01/14 09:31:47;;;;;;;;;;;;;;;7.00;72.85;98379.00;7383975;19;19943;-84
2023/01/14 09:34:14;;;;;;;;;;;;;;;7.03;72.90;98376.13;7385613;19;19918;-84
2023/01/14 09:36:41;;;;;;;;;;;;;;;7.15;72.36;98384.75;7385686;19;19945;-84
2023/01/14 09:39:07;;;;;;;;;;;;;;;7.00;72.74;98386.91;7384775;19;19933;-83
2023/01/14 09:41:36;;;;;;;;;;;;;;;7.20;72.96;98386.00;7383737;19;19922;-85
2023/01/14 09:44:04;;;;;;;;;;;;;;;7.21;73.09;98387.69;7379753;19;20353;-84
2023/01/14 09:46:30;;;;;;;;;;;;;;;7.34;72.74;98382.16;7374999;19;19915;-84
2023/01/14 09:48:59;;;;;;;;;;;;;;;7.45;72.66;98371.53;7378720;19;19933;-84
2023/01/14 09:51:41;;;;;;;;;;;;;;;7.26;72.82;98372.28;7380137;19;19918;-85
2023/01/14 09:54:11;;;;;;;;;;;;;;;7.31;73.24;98371.91;7384793;19;19938;-84
2023/01/14 09:56:51;;;;;;;;;;;;;;;7.42;72.81;98373.59;7381017;19;20344;-84
2023/01/14 09:59:18;;;;;;;;;;;;;;;7.46;72.61;98367.91;7380982;19;19914;-85
2023/01/14 10:01:45;;;;;;;;;;;;;;;7.57;72.53;98368.78;7380439;19;19932;-84
2023/01/14 10:04:31;;;;;;;;;;;;;;;7.57;72.49;98361.69;7378152;19;19910;-85
2023/01/14 10:06:57;;;;;;;;;;;;;;;7.76;72.20;98363.50;7377314;19;19942;-85
2023/01/14 10:09:25;;;;;;;;;;;;;;;7.80;72.53;98364.91;7378752;19;19922;-83
2023/01/14 10:11:52;;;;;;;;;;;;;;;7.98;72.13;98357.16;7379561;19;19925;-84
2023/01/14 10:14:27;;;;;;;;;;;;;;;7.89;71.54;98366.69;7379999;19;19919;-84
2023/01/14 10:16:58;;;;;;;;;;;;;;;8.04;71.81;98353.13;7375931;19;19926;-84
2023/01/14 10:19:32;;;;;;;;;;;;;;;8.22;71.49;98345.34;7375632;19;20336;-84
2023/01/14 10:22:09;;;;;;;;;;;;;;;8.37;70.67;98349.16;7378057;19;19978;-84
2023/01/14 10:24:41;;;;;;;;;;;;;;;8.49;71.53;98328.78;7382122;19;19941;-83
2023/01/14 10:27:15;;;;;;;;;;;;;;;8.41;71.19;98328.66;7378697;19;19917;-84
2023/01/14 10:29:42;;;;;;;;;;;;;;;8.26;71.10;98309.78;7380750;19;19922;-83
2023/01/14 10:32:12;;;;;;;;;;;;;;;8.44;70.88;98291.47;7383737;19;19946;-83
2023/01/14 10:34:45;;;;;;;;;;;;;;;8.13;71.24;98273.22;7377398;19;19922;-83
2023/01/14 10:37:12;;;;;;;;;;;;;;;8.28;70.50;98242.78;7369681;19;19934;-81
2023/01/14 10:39:46;;;;;;;;;;;;;;;7.81;71.53;98247.22;7382534;19;19930;-79
2023/01/14 10:42:20;;;;;;;;;;;;;;;7.87;71.65;98241.38;7377842;19;19946;-82
2023/01/14 10:44:48;;;;;;;;;;;;;;;7.87;71.56;98258.03;7377792;19;19935;-84
2023/01/14 10:47:16;;;;;;;;;;;;;;;7.99;70.84;98253.41;7376803;19;19926;-81
2023/01/14 10:50:11;;;;;;;;;;;;;;;8.17;70.44;98256.16;7378128;19;19954;-82
2023/01/14 10:52:38;;;;;;;;;;;;;;;8.28;70.89;98241.97;7376327;19;20268;-84
2023/01/14 10:55:11;;;;;;;;;;;;;;;8.14;70.53;98240.63;7379133;19;20257;-82
2023/01/14 10:57:55;;;;;;;;;;;;;;;8.38;70.50;98228.75;7379817;19;20308;-84
2023/01/14 11:00:34;;;;;;;;;;;;;;;8.36;69.78;98227.06;7377728;19;19915;-82
2023/01/14 11:03:02;;;;;;;;;;;;;;;8.37;69.86;98217.34;7376125;19;20072;-82
2023/01/14 11:05:30;;;;;;;;;;;;;;;8.53;69.26;98206.22;7374564;19;19922;-83
2023/01/14 11:07:57;;;;;;;;;;;;;;;8.30;70.02;98198.69;7383954;19;19918;-82
2023/01/14 11:10:28;;;;;;;;;;;;;;;8.36;69.57;98191.97;7379604;19;19919;-82
2023/01/14 11:13:33;;;;;;;;;;;;;;;8.46;69.98;98178.78;7384140;19;19927;-84
2023/01/14 11:16:00;;;;;;;;;;;;;;;8.26;70.02;98163.03;7380583;19;19919;-82
2023/01/14 11:18:27;;;;;;;;;;;;;;;8.44;70.20;98170.19;7378891;19;20001;-81
2023/01/14 11:21:04;;;;;;;;;;;;;;;8.54;70.03;98166.53;7386199;19;19934;-83
2023/01/14 11:23:32;;;;;;;;;;;;;;;8.47;70.32;98162.81;7387975;19;19922;-83
2023/01/14 11:26:21;;;;;;;;;;;;;;;8.34;69.94;98157.84;7387364;19;20223;-83
2023/01/14 11:28:48;;;;;;;;;;;;;;;8.53;69.51;98169.28;7388030;19;20336;-83
2023/01/14 11:31:17;;;;;;;;;;;;;;;8.59;69.90;98155.53;7388061;19;19989;-82
2023/01/14 11:33:48;;;;;;;;;;;;;;;8.57;69.70;98152.22;7385207;19;20295;-84
2023/01/14 11:36:23;;;;;;;;;;;;;;;8.52;69.67;98152.66;7383666;19;19986;-82
2023/01/14 11:38:50;;;;;;;;;;;;;;;8.56;69.47;98147.94;7384638;19;19919;-83
2023/01/14 11:41:35;;;;;;;;;;;;;;;8.59;69.90;98145.00;7381792;19;19915;-82
2023/01/14 11:44:03;;;;;;;;;;;;;;;9.01;69.16;98136.50;7384170;19;19958;-82
2023/01/14 11:46:30;;;;;;;;;;;;;;;8.85;69.11;98126.63;7379755;19;19915;-83
2023/01/14 11:49:01;;;;;;;;;;;;;;;9.01;68.85;98120.66;7379873;19;19915;-82
2023/01/14 11:51:29;;;;;;;;;;;;;;;8.77;69.00;98116.00;7379093;19;20386;-81
2023/01/14 11:53:56;;;;;;;;;;;;;;;8.87;69.32;98110.63;7382364;19;19930;-84
2023/01/14 11:56:26;;;;;;;;;;;;;;;8.65;69.34;98110.09;7373393;19;19923;-81
2023/01/14 11:58:52;;;;;;;;;;;;;;;8.86;69.86;98111.63;7385268;19;20292;-81
2023/01/14 12:01:19;;;;;;;;;;;;;;;8.89;69.27;98098.94;7379084;19;20022;-83
2023/01/14 12:03:48;;;;;;;;;;;;;;;8.72;69.57;98087.44;7382280;19;19917;-81
2023/01/14 12:06:16;;;;;;;;;;;;;;;8.68;69.04;98075.53;7379083;19;20486;-82
2023/01/14 12:08:43;;;;;;;;;;;;;;;9.06;69.37;98065.63;7381962;19;19949;-82
2023/01/14 12:11:17;;;;;;;;;;;;;;;8.86;69.80;98058.88;7378980;19;19910;-82
2023/01/14 12:16:51;;;;;;;;;;;;;;;9.04;68.73;98051.75;7377696;19;19918;-82
2023/01/14 12:19:23;;;;;;;;;;;;;;;8.82;68.74;98037.25;7375873;19;19926;-83
2023/01/14 12:21:59;;;;;;;;;;;;;;;9.05;68.36;98034.94;7385486;19;19918;-83
2023/01/14 12:24:38;;;;;;;;;;;;;;;8.84;69.40;98035.25;7380589;19;19943;-82
2023/01/14 12:27:05;;;;;;;;;;;;;;;9.05;68.52;98026.19;7380715;19;19918;-83
2023/01/14 12:29:33;;;;;;;;;;;;;;;9.07;68.92;98024.22;7379981;19;21088;-84
2023/01/14 12:32:04;;;;;;;;;;;;;;;9.08;68.57;98018.78;7382841;19;19940;-84
2023/01/14 12:34:42;;;;;;;;;;;;;;;8.86;69.26;98009.56;7381827;19;19934;-83
2023/01/14 12:37:12;;;;;;;;;;;;;;;9.21;68.10;97995.44;7379178;19;20392;-83
2023/01/14 12:48:03;;;;;;;;;;;;;;;8.91;68.40;97961.63;7384496;19;19918;-83
2023/01/14 12:50:30;;;;;;;;;;;;;;;8.88;69.05;97954.03;7385670;19;19946;-82
2023/01/14 12:52:57;;;;;;;;;;;;;;;8.81;68.48;97939.78;7381491;19;19937;-83
2023/01/14 12:55:31;;;;;;;;;;;;;;;8.77;68.81;97937.47;7383203;19;20324;-82
2023/01/14 12:57:58;;;;;;;;;;;;;;;8.84;68.34;97924.47;7385296;19;20620;-84
2023/01/14 13:00:27;;;;;;;;;;;;;;;9.00;68.47;97924.59;7379623;19;20721;-84
2023/01/14 13:02:54;;;;;;;;;;;;;;;8.90;68.16;97929.16;7384685;19;19915;-82
2023/01/14 13:05:26;;;;;;;;;;;;;;;8.94;68.46;97924.38;7389540;19;19915;-83
2023/01/14 13:07:55;;;;;;;;;;;;;;;8.95;67.98;97928.66;7384534;19;19910;-82
2023/01/14 13:10:31;;;;;;;;;;;;;;;8.88;67.28;97920.56;7385658;19;19952;-81
2023/01/14 13:12:58;;;;;;;;;;;;;;;9.05;66.99;97904.81;7385523;19;19927;-82
2023/01/14 13:15:26;;;;;;;;;;;;;;;9.21;66.69;97889.88;7373567;19;19930;-81
2023/01/14 13:17:56;;;;;;;;;;;;;;;9.08;65.74;97894.75;7378853;19;19911;-82
2023/01/14 13:20:29;;;;;;;;;;;;;;;9.05;66.94;97897.72;7377543;19;19922;-82
2023/01/14 13:22:57;;;;;;;;;;;;;;;9.15;66.74;97887.88;7381802;19;19943;-82
2023/01/14 13:25:30;;;;;;;;;;;;;;;9.09;66.35;97887.69;7375367;19;19939;-82
2023/01/14 13:27:57;;;;;;;;;;;;;;;9.23;65.98;97882.63;7383723;19;19930;-81
2023/01/14 13:30:23;;;;;;;;;;;;;;;9.16;65.80;97871.06;7376044;19;19918;-82
2023/01/14 13:32:59;;;;;;;;;;;;;;;9.10;65.81;97873.50;7379244;19;19919;-82
2023/01/14 13:35:29;;;;;;;;;;;;;;;9.14;66.01;97870.38;7379553;19;19971;-81
2023/01/14 13:37:56;;;;;;;;;;;;;;;9.21;65.83;97873.19;7394310;19;19910;-81
2023/01/14 13:40:33;;;;;;;;;;;;;;;9.11;66.61;97857.53;7385145;19;19928;-81
2023/01/14 13:43:00;;;;;;;;;;;;;;;9.30;66.09;97831.84;7382900;19;19939;-82
2023/01/14 13:45:27;;;;;;;;;;;;;;;9.08;66.60;97812.94;7384962;19;19929;-81
2023/01/14 13:47:55;;;;;;;;;;;;;;;9.45;65.99;97828.41;7380248;19;19926;-84
2023/01/14 13:50:23;;;;;;;;;;;;;;;9.13;66.69;97831.78;7375170;19;19926;-82